DAAJ

Djanet Inedbirene Airport

Djanet, Algeria
TAF DAAJ 212300Z 2200/2224 14008KT CAVOK PROB30 TEMPO 2212/2218 4000 HZ
Issued Valid From Valid To
Jan-21 @ 23:00 UTC
(2 hours ago)
Jan-22 @ 00:00 UTC
(39 minutes ago)
Jan-23 @ 00:00 UTC
(in 23 hours)
Jan-22 @ 00:00 to Jan-23 @ 00:00
TAF DAAJ 212300Z 2200/2224 14008KT CAVOK
Wind Visibility Clouds Conditions
140° at 8 knots 10,000+ meters
  • No significant clouds
Temporary  (Probability 30%) Jan-22 @ 12:00 to Jan-22 @ 18:00
PROB30 TEMPO 2212/2218 4000 HZ
Visibility Conditions
4,007 meters
  • Haze
TAF DAAJ 212300Z 2200/2224 14008KT CAVOK PROB30 TEMPO 2212/2218 4000 HZ
Issued Jan-21 @ 23:00 UTC
(2 hours ago)
Valid From Jan-22 @ 00:00 UTC
(39 minutes ago)
Valid To Jan-23 @ 00:00 UTC
(in 23 hours)
Jan-22 @ 00:00 - Jan-23 @ 00:00
Wind Visibility
140° at 8 knots 10,000+ meters
Clouds
  • No significant clouds
Conditions
Probability 30% Temporary Jan-22 @ 12:00 - Jan-22 @ 18:00
Conditions
  • Haze